Latest Weather Observations for Shark Bay Airport

IDW60801

Issued at 10:33 am WST Thursday 1 October 2020 (issued every 10 minutes, with the page automatically refreshed every 10 minutes)

About weather observations | Map of weather stations | Latest weather observations for WA | Other Formats
Station Details ID: 006105 Name: SHARK BAY AIRPORT Lat: -25.89 Lon: 113.58 Height: 33.8 m
Data from the previous 72 hours. | See also: Recent months at Shark Bay Airport
Date/Time
WST
Temp
°C
App
Temp
°C
Dew
Point
°C
Rel
Hum
%
Delta-T
°C
Wind Press
QNH
hPa
Press
MSL
hPa
Rain since
9am
mm
Dir  Spd
km/h
Gust
km/h
Spd
kts
Gust
kts
01/10:30am 22.5 18.2 13.3 56 5.3 S 28 37 15 20 1014.9 1014.8 0.0
01/10:00am 22.1 18.7 13.7 59 4.9 S 24 35 13 19 1015.3 1015.2 0.0
01/09:30am 21.7 18.3 13.6 60 4.7 S 24 37 13 20 1015.4 1015.3 0.0
01/09:00am 20.7 16.8 13.4 63 4.2 S 26 35 14 19 1015.4 1015.3 0.0
01/08:30am 19.9 16.5 13.6 67 3.6 SSE 24 32 13 17 1015.5 1015.4 0.0
01/08:00am 19.0 15.7 14.1 73 2.8 SSE 24 33 13 18 1015.4 1015.3 0.0
01/07:30am 17.7 14.7 13.8 78 2.2 SE 22 30 12 16 1015.3 1015.2 0.0
01/07:00am 16.4 14.4 13.9 85 1.4 SE 17 22 9 12 1015.1 1015.0 0.0
01/06:30am 15.2 14.0 13.9 92 0.7 SE 13 19 7 10 1014.9 1014.8 0.0
01/06:00am 15.2 13.5 13.6 90 0.9 SE 15 20 8 11 1014.6 1014.5 0.0
01/05:30am 15.6 14.0 14.0 90 0.9 SE 15 20 8 11 1014.2 1014.1 0.0
01/05:00am 15.6 14.1 14.1 91 0.8 SSE 15 20 8 11 1014.1 1014.0 0.0
01/04:30am 15.1 13.9 14.0 93 0.6 SSE 13 19 7 10 1014.1 1014.0 0.0
01/04:00am 15.4 13.9 14.1 92 0.7 SSE 15 20 8 11 1013.9 1013.8 0.0
01/03:30am 15.8 13.9 14.3 91 0.9 SSE 17 22 9 12 1013.9 1013.8 0.0
01/03:00am 16.2 14.5 14.6 90 0.9 SSE 17 26 9 14 1013.8 1013.7 0.0
01/02:30am 16.5 14.8 14.7 89 1.0 SSE 17 24 9 13 1013.8 1013.7 0.0
01/02:00am 16.9 15.0 15.1 89 1.0 SSE 19 26 10 14 1013.8 1013.7 0.0
01/01:30am 17.0 15.4 15.0 88 1.2 SSE 17 24 9 13 1013.9 1013.8 0.0
01/01:00am 17.5 15.4 15.3 87 1.3 SSE 20 30 11 16 1014.0 1013.9 0.0
01/12:30am 17.5 16.0 15.3 87 1.3 S 17 24 9 13 1014.2 1014.1 0.0
01/12:00am 17.8 15.7 15.2 85 1.5 S 20 33 11 18 1014.2 1014.1 0.0
 
Date/Time
WST
Temp
°C
App
Temp
°C
Dew
Point
°C
Rel
Hum
%
Delta-T
°C
Wind Press
QNH
hPa
Press
MSL
hPa
Rain since
9am
mm
Dir  Spd
km/h
Gust
km/h
Spd
kts
Gust
kts
30/11:30pm 18.0 15.6 15.4 85 1.5 S 22 32 12 17 1014.5 1014.4 0.0
30/11:00pm 18.2 15.9 15.6 85 1.5 S 22 33 12 18 1014.6 1014.5 0.0
30/10:30pm 18.4 15.8 15.8 85 1.5 S 24 37 13 20 1014.8 1014.7 0.0
30/10:00pm 18.6 16.0 15.8 84 1.7 S 24 35 13 19 1015.0 1014.9 0.0
30/09:30pm 18.8 15.4 15.7 82 1.8 S 28 37 15 20 1015.1 1015.0 0.0
30/09:00pm 18.8 16.1 15.7 82 1.8 S 24 35 13 19 1014.9 1014.8 0.0
30/08:30pm 19.0 16.3 15.5 80 2.1 S 24 33 13 18 1014.9 1014.8 0.0
30/08:00pm 19.3 16.6 15.6 79 2.2 SSW 24 32 13 17 1014.6 1014.5 0.0
30/07:30pm 19.8 17.1 15.7 77 2.4 SSW 24 33 13 18 1014.2 1014.1 0.0
30/07:00pm 20.5 18.5 15.5 73 3.0 SSW 20 30 11 16 1013.9 1013.8 0.0
30/06:30pm 21.3 18.8 15.2 68 3.6 SSW 22 35 12 19 1013.5 1013.4 0.0
30/06:00pm 22.7 19.4 15.0 61 4.6 SSW 26 33 14 18 1013.0 1012.9 0.0
30/05:30pm 24.0 21.4 15.8 60 5.0 SSW 24 35 13 19 1012.8 1012.7 0.0
30/05:00pm 24.7 21.1 15.3 56 5.7 SSW 28 35 15 19 1012.6 1012.5 0.0
30/04:30pm 25.8 22.2 14.3 49 6.8 SW 26 33 14 18 1012.9 1012.8 0.0
30/04:00pm 25.8 21.9 14.3 49 6.8 SW 28 33 15 18 1013.1 1013.0 0.0
30/03:30pm 26.8 22.6 13.5 44 7.9 SW 28 35 15 19 1013.2 1013.1 0.0
30/03:00pm 27.4 21.8 8.8 31 10.2 SSW 28 35 15 19 1013.3 1013.2 0.0
30/02:30pm 27.1 22.2 9.9 34 9.6 SSW 26 33 14 18 1013.5 1013.4 0.0
30/02:00pm 26.9 22.3 11.0 37 9.0 SW 26 32 14 17 1013.8 1013.7 0.0
30/01:30pm 27.2 23.2 11.7 38 8.9 SW 24 30 13 16 1014.2 1014.1 0.0
30/01:00pm 27.9 26.4 11.9 37 9.2 SE 11 22 6 12 1014.6 1014.5 0.0
30/12:30pm 28.2 25.3 8.0 28 11.0 ESE 13 20 7 11 1015.1 1015.0 0.0
30/12:00pm 27.7 25.4 9.0 31 10.3 E 11 20 6 11 1015.6 1015.5 0.0
30/11:30am 26.4 22.9 8.8 33 9.6 ESE 17 26 9 14 1016.1 1016.0 0.0
30/11:00am 25.6 22.4 9.8 37 8.7 ESE 17 26 9 14 1016.6 1016.5 0.0
30/10:30am 24.5 20.9 10.4 41 7.8 SE 20 28 11 15 1017.0 1016.9 0.0
30/10:00am 23.8 20.4 11.2 45 7.0 SE 20 28 11 15 1017.2 1017.1 0.0
30/09:30am 22.7 19.4 10.8 47 6.6 SE 19 28 10 15 1017.4 1017.3 0.0
30/09:00am 20.8 17.2 11.7 56 5.1 SE 22 30 12 16 1017.5 1017.4 0.0
30/08:30am 19.6 16.6 12.6 64 3.9 SE 20 32 11 17 1017.6 1017.5 0.0
30/08:00am 18.1 14.6 12.1 68 3.3 SE 22 30 12 16 1017.5 1017.4 0.0
30/07:30am 17.0 13.5 12.1 73 2.7 SE 22 32 12 17 1017.3 1017.2 0.0
30/07:00am 15.8 12.8 11.8 77 2.2 SE 19 26 10 14 1017.2 1017.1 0.0
30/06:30am 14.8 11.7 11.6 81 1.7 SE 19 28 10 15 1017.0 1016.9 0.0
30/06:00am 15.0 11.7 11.6 80 1.8 SE 20 30 11 16 1016.8 1016.7 0.0
30/05:30am 15.2 11.9 11.6 79 1.9 SE 20 32 11 17 1016.7 1016.6 0.0
30/05:00am 15.3 12.3 12.1 81 1.7 SE 19 32 10 17 1016.5 1016.4 0.0
30/04:30am 15.6 11.7 12.2 80 1.9 SSE 24 35 13 19 1016.3 1016.2 0.0
30/04:00am 15.5 12.5 12.6 83 1.6 SSE 20 26 11 14 1016.4 1016.3 0.0
30/03:30am 15.5 12.5 12.6 83 1.6 SSE 20 32 11 17 1016.4 1016.3 0.0
30/03:00am 15.6 12.8 12.7 83 1.6 SSE 19 28 10 15 1016.7 1016.6 0.0
30/02:30am 15.9 12.5 12.6 81 1.8 SSE 22 30 12 16 1016.8 1016.7 0.0
30/02:00am 16.0 13.1 12.9 82 1.7 SSE 20 30 11 16 1017.0 1016.9 0.0
30/01:30am 16.0 13.1 12.9 82 1.7 SSE 20 30 11 16 1017.2 1017.1 0.0
30/01:00am 16.3 13.7 13.2 82 1.7 SSE 19 26 10 14 1017.5 1017.4 0.0
30/12:30am 16.8 13.7 13.3 80 2.0 SSE 22 32 12 17 1017.6 1017.5 0.0
30/12:00am 17.2 13.7 13.5 79 2.1 SSE 24 33 13 18 1018.0 1017.9 0.0
 
Date/Time
WST
Temp
°C
App
Temp
°C
Dew
Point
°C
Rel
Hum
%
Delta-T
°C
Wind Press
QNH
hPa
Press
MSL
hPa
Rain since
9am
mm
Dir  Spd
km/h
Gust
km/h
Spd
kts
Gust
kts
29/11:30pm 17.4 14.8 13.7 79 2.1 SSE 20 28 11 15 1018.3 1018.2 0.0
29/11:00pm 17.7 15.2 14.2 80 2.0 SSE 20 30 11 16 1018.5 1018.4 0.0
29/10:30pm 17.9 15.0 14.0 78 2.2 S 22 30 12 16 1018.7 1018.6 0.0
29/10:00pm 18.1 14.4 13.8 76 2.4 S 26 39 14 21 1018.9 1018.9 0.0
29/09:30pm 18.2 15.0 14.3 78 2.2 S 24 35 13 19 1018.9 1018.9 0.0
29/09:00pm 18.3 15.5 14.4 78 2.2 S 22 32 12 17 1018.7 1018.6 0.0
29/08:30pm 18.6 15.4 14.3 76 2.5 S 24 35 13 19 1018.6 1018.5 0.0
29/08:00pm 18.5 15.0 13.4 72 2.9 S 24 32 13 17 1018.4 1018.3 0.0
29/07:30pm 18.7 15.9 13.1 70 3.2 S 20 28 11 15 1018.3 1018.2 0.0
29/07:00pm 19.3 15.5 13.5 69 3.3 SSW 26 35 14 19 1018.1 1018.0 0.0
29/06:30pm 19.8 15.7 12.6 63 4.1 S 26 35 14 19 1017.7 1017.6 0.0
29/06:00pm 20.7 16.2 12.7 60 4.5 S 28 39 15 21 1017.6 1017.5 0.0
29/05:30pm 21.5 16.2 12.6 57 5.1 SSW 32 43 17 23 1017.2 1017.1 0.0
29/05:00pm 22.7 17.6 12.0 50 6.0 SSW 30 41 16 22 1017.2 1017.1 0.0
29/04:30pm 23.3 17.8 10.7 45 7.0 SSW 30 41 16 22 1017.2 1017.1 0.0
29/04:00pm 24.3 19.4 11.3 44 7.3 SSW 28 37 15 20 1017.1 1017.0 0.0
29/03:30pm 24.8 19.3 7.4 33 9.2 SSW 26 33 14 18 1017.1 1017.0 0.0
29/03:00pm 25.0 20.0 8.1 34 9.0 SW 24 32 13 17 1017.3 1017.2 0.0
29/02:30pm 25.8 20.1 6.9 30 9.9 SSW 26 35 14 19 1017.4 1017.3 0.0
29/02:00pm 26.1 20.1 3.4 23 11.2 SW 24 35 13 19 1017.5 1017.4 0.0
29/01:30pm 25.3 19.6 6.5 30 9.8 SSW 26 35 14 19 1018.1 1018.0 0.0
29/01:00pm 25.1 19.1 8.6 35 8.9 SW 30 39 16 21 1018.1 1018.0 0.0
29/12:30pm 24.7 19.8 11.3 43 7.6 SW 28 37 15 20 1018.8 1018.8 0.0
29/12:00pm 23.8 19.0 11.5 46 6.9 SSW 28 33 15 18 1019.5 1019.5 0.0
29/11:30am 23.6 19.9 11.6 47 6.8 S 22 37 12 20 1019.9 1019.9 0.0
29/11:00am 23.7 20.3 10.4 43 7.3 SSE 19 30 10 16 1020.1 1020.1 0.0
29/10:30am 23.1 19.2 10.9 46 6.8 SE 22 32 12 17 1020.4 1020.4 0.0
29/10:00am 21.8 18.6 11.8 53 5.6 SSE 20 33 11 18 1020.6 1020.6 0.0
29/09:30am 21.3 18.1 13.0 59 4.7 SE 22 32 12 17 1020.8 1020.8 0.0
29/09:00am 20.7 17.5 13.2 62 4.3 SE 22 32 12 17 1021.0 1021.0 0.0
29/08:30am 20.2 17.5 13.4 65 3.9 SE 20 33 11 18 1021.0 1021.0 0.0
29/08:00am 19.4 16.5 14.0 71 3.1 SE 22 30 12 16 1020.8 1020.8 0.0
29/07:30am 17.9 15.9 14.0 78 2.2 SE 17 22 9 12 1020.5 1020.5 0.0
29/07:00am 15.7 14.9 13.9 89 1.0 SE 11 15 6 8 1020.2 1020.2 0.0
29/06:30am 14.1 13.0 13.1 94 0.6 SE 11 13 6 7 1019.7 1019.7 0.0
29/06:00am 14.1 12.6 13.0 93 0.6 SE 13 17 7 9 1019.3 1019.3 0.0
29/05:30am 14.2 12.7 13.2 94 0.6 SE 13 19 7 10 1019.0 1019.0 0.0
29/05:00am 13.9 12.4 13.1 95 0.4 SE 13 17 7 9 1018.8 1018.8 0.0
29/04:30am 13.8 12.6 12.7 93 0.6 SSE 11 13 6 7 1018.6 1018.5 0.0
29/04:00am 14.2 12.6 12.9 92 0.7 SSE 13 15 7 8 1018.5 1018.4 0.0
29/03:30am 14.6 13.5 13.0 90 0.9 SE 11 13 6 7 1018.5 1018.4 0.0
29/03:00am 15.2 13.5 13.6 90 0.9 SSE 15 19 8 10 1018.6 1018.5 0.0
29/02:30am 15.6 14.0 13.8 89 1.0 SSE 15 20 8 11 1018.6 1018.5 0.0
29/02:00am 15.6 14.0 13.8 89 1.0 SSE 15 19 8 10 1018.8 1018.8 0.0
29/01:30am 15.5 14.1 13.5 88 1.1 SSE 13 15 7 8 1019.1 1019.1 0.0
29/01:00am 15.7 14.4 13.7 88 1.1 SSE 13 15 7 8 1019.2 1019.2 0.0
29/12:30am 15.8 14.7 13.1 84 1.5 SSE 11 15 6 8 1019.2 1019.2 0.0
29/12:00am 16.7 15.4 13.8 83 1.6 SSE 13 17 7 9 1019.2 1019.2 0.0
 
Date/Time
WST
Temp
°C
App
Temp
°C
Dew
Point
°C
Rel
Hum
%
Delta-T
°C
Wind Press
QNH
hPa
Press
MSL
hPa
Rain since
9am
mm
Dir  Spd
km/h
Gust
km/h
Spd
kts
Gust
kts
28/11:30pm 17.4 15.9 14.1 81 1.9 S 15 22 8 12 1019.3 1019.3 0.0
28/11:00pm 17.9 15.6 14.0 78 2.2 S 19 26 10 14 1019.5 1019.5 0.0
28/10:30pm 18.1 15.8 14.0 77 2.3 S 19 24 10 13 1019.7 1019.7 0.0
28/10:00pm 18.4 15.4 13.7 74 2.7 S 22 30 12 16 1019.9 1019.9 0.0
28/09:30pm 18.5 15.4 13.4 72 2.9 S 22 32 12 17 1020.0 1020.0 0.0
28/09:00pm 18.8 15.5 13.9 73 2.8 S 24 32 13 17 1019.8 1019.8 0.0
28/08:30pm 18.9 15.4 13.5 71 3.1 S 24 33 13 18 1019.7 1019.7 0.0
28/08:00pm 19.1 15.5 13.1 68 3.4 S 24 33 13 18 1019.6 1019.6 0.0
28/07:30pm 19.3 15.7 13.0 67 3.6 SSW 24 35 13 19 1019.3 1019.3 0.0
28/07:00pm 19.4 16.1 12.9 66 3.7 S 22 32 12 17 1018.7 1018.6 0.0
28/06:30pm 20.0 16.5 13.5 66 3.7 S 24 35 13 19 1018.4 1018.3 0.0
28/06:00pm 20.7 16.5 13.4 63 4.2 S 28 35 15 19 1017.9 1017.8 0.0
28/05:30pm 21.5 16.6 12.6 57 5.1 SSW 30 39 16 21 1017.6 1017.5 0.0
28/05:00pm 22.2 17.7 12.7 55 5.4 S 28 37 15 20 1017.5 1017.4 0.0
28/04:30pm 22.9 17.6 11.3 48 6.5 S 30 41 16 22 1017.3 1017.2 0.0
28/04:00pm 23.2 18.3 11.3 47 6.6 S 28 35 15 19 1017.2 1017.1 0.0
28/03:30pm 24.3 19.4 11.3 44 7.3 SSW 28 39 15 21 1017.4 1017.3 0.0
28/03:00pm 24.0 18.6 9.6 40 7.8 SSW 28 39 15 21 1017.4 1017.3 0.0
28/02:30pm 25.1 20.0 10.6 40 8.1 SW 28 41 15 22 1017.5 1017.4 0.0
28/02:00pm 24.2 19.8 14.0 53 6.0 WSW 30 41 16 22 1017.6 1017.5 0.0
28/01:30pm 23.6 19.3 12.0 48 6.6 SW 26 39 14 21 1018.0 1017.9 0.0
28/01:00pm 24.0 19.1 11.3 45 7.1 SW 28 37 15 20 1018.1 1018.0 0.0
28/12:30pm 24.3 19.9 11.6 45 7.2 SW 26 39 14 21 1018.4 1018.3 0.0
28/12:00pm 23.1 18.6 10.2 44 7.1 SW 24 35 13 19 1018.7 1018.6 0.0
28/11:30am 22.9 18.3 9.7 43 7.2 SSW 24 33 13 18 1018.9 1018.9 0.0
28/11:00am 22.3 18.2 11.4 50 6.1 SSW 24 32 13 17 1019.3 1019.3 0.0

Other formats

Comma delimited format used in spreadsheet applications
http://www.bom.gov.au/fwo/IDW60801/IDW60801.95402.axf

JavaScript Object Notation format (JSON) in row-major order
http://www.bom.gov.au/fwo/IDW60801/IDW60801.95402.json

Data quality

Most of these data are generated automatically and are frequently updated. Quality checks on data are not normally performed. It is possible for incorrect values to appear. Refer to information at About Latest Weather Observations and please check the disclaimer before using these data.